sensor_id;sensor_type;location;lat;lon;timestamp;pressure;altitude;pressure_sealevel;temperature;humidity
9525;BME280;15940;48.734;9.112;2023-03-20T00:00:47;96773.00;;;7.60;93.83
9525;BME280;15940;48.734;9.112;2023-03-20T00:03:15;96771.66;;;7.55;93.58
9525;BME280;15940;48.734;9.112;2023-03-20T00:05:42;96772.41;;;7.56;93.96
9525;BME280;15940;48.734;9.112;2023-03-20T00:08:09;96781.72;;;7.55;93.84
9525;BME280;15940;48.734;9.112;2023-03-20T00:10:39;96781.56;;;7.58;93.92
9525;BME280;15940;48.734;9.112;2023-03-20T00:13:14;96781.09;;;7.60;94.17
9525;BME280;15940;48.734;9.112;2023-03-20T00:15:45;96782.28;;;7.59;93.70
9525;BME280;15940;48.734;9.112;2023-03-20T00:18:15;96783.47;;;7.58;94.00
9525;BME280;15940;48.734;9.112;2023-03-20T00:20:44;96771.94;;;7.57;93.87
9525;BME280;15940;48.734;9.112;2023-03-20T00:23:12;96781.84;;;7.60;93.45
9525;BME280;15940;48.734;9.112;2023-03-20T00:25:41;96780.50;;;7.56;93.45
9525;BME280;15940;48.734;9.112;2023-03-20T00:28:30;96769.50;;;7.44;93.07
9525;BME280;15940;48.734;9.112;2023-03-20T00:31:02;96777.78;;;7.41;93.07
9525;BME280;15940;48.734;9.112;2023-03-20T00:33:29;96785.72;;;7.35;93.46
9525;BME280;15940;48.734;9.112;2023-03-20T00:35:56;96781.25;;;7.32;93.17
9525;BME280;15940;48.734;9.112;2023-03-20T00:38:24;96777.56;;;7.30;93.33
9525;BME280;15940;48.734;9.112;2023-03-20T00:40:51;96791.03;;;7.30;93.26
9525;BME280;15940;48.734;9.112;2023-03-20T00:43:18;96788.19;;;7.24;93.32
9525;BME280;15940;48.734;9.112;2023-03-20T00:45:46;96794.78;;;7.23;93.51
9525;BME280;15940;48.734;9.112;2023-03-20T00:48:14;96788.75;;;7.28;93.61
9525;BME280;15940;48.734;9.112;2023-03-20T00:50:42;96784.13;;;7.29;93.84
9525;BME280;15940;48.734;9.112;2023-03-20T00:53:11;96786.06;;;7.28;93.92
9525;BME280;15940;48.734;9.112;2023-03-20T00:55:38;96791.34;;;7.23;93.57
9525;BME280;15940;48.734;9.112;2023-03-20T00:58:06;96786.72;;;7.23;93.50
9525;BME280;15940;48.734;9.112;2023-03-20T01:00:37;96794.78;;;7.23;93.87
9525;BME280;15940;48.734;9.112;2023-03-20T01:03:14;96789.50;;;7.29;93.71
9525;BME280;15940;48.734;9.112;2023-03-20T01:05:43;96793.13;;;7.26;93.78
9525;BME280;15940;48.734;9.112;2023-03-20T01:08:16;96785.50;;;7.24;93.71
9525;BME280;15940;48.734;9.112;2023-03-20T01:10:44;96787.00;;;7.25;93.97
9525;BME280;15940;48.734;9.112;2023-03-20T01:13:20;96782.81;;;7.24;94.03
9525;BME280;15940;48.734;9.112;2023-03-20T01:15:49;96789.13;;;7.21;93.67
9525;BME280;15940;48.734;9.112;2023-03-20T01:18:21;96791.34;;;7.23;93.92
9525;BME280;15940;48.734;9.112;2023-03-20T01:20:49;96796.75;;;7.23;94.10
9525;BME280;15940;48.734;9.112;2023-03-20T01:23:17;96789.97;;;7.27;94.09
9525;BME280;15940;48.734;9.112;2023-03-20T01:25:44;96789.50;;;7.29;94.03
9525;BME280;15940;48.734;9.112;2023-03-20T01:28:15;96791.03;;;7.30;93.71
9525;BME280;15940;48.734;9.112;2023-03-20T01:30:43;96796.41;;;7.30;93.89
9525;BME280;15940;48.734;9.112;2023-03-20T01:33:15;96790.88;;;7.24;93.67
9525;BME280;15940;48.734;9.112;2023-03-20T01:35:44;96798.69;;;7.22;93.50
9525;BME280;15940;48.734;9.112;2023-03-20T01:38:16;96785.50;;;7.24;93.52
9525;BME280;15940;48.734;9.112;2023-03-20T01:40:51;96791.34;;;7.23;93.62
9525;BME280;15940;48.734;9.112;2023-03-20T01:43:21;96792.56;;;7.22;93.38
9525;BME280;15940;48.734;9.112;2023-03-20T01:45:56;96788.06;;;7.19;93.50
9525;BME280;15940;48.734;9.112;2023-03-20T01:48:34;96787.63;;;7.20;93.33
9525;BME280;15940;48.734;9.112;2023-03-20T01:51:05;96790.47;;;7.16;93.29
9525;BME280;15940;48.734;9.112;2023-03-20T01:53:32;96793.91;;;7.17;93.23
9525;BME280;15940;48.734;9.112;2023-03-20T01:55:59;96791.69;;;7.15;93.27
9525;BME280;15940;48.734;9.112;2023-03-20T01:58:31;96804.41;;;7.15;92.74
9525;BME280;15940;48.734;9.112;2023-03-20T02:01:00;96797.47;;;7.23;93.28
9525;BME280;15940;48.734;9.112;2023-03-20T02:03:28;96795.25;;;7.22;93.34
9525;BME280;15940;48.734;9.112;2023-03-20T02:05:56;96802.28;;;7.19;93.09
9525;BME280;15940;48.734;9.112;2023-03-20T02:08:28;96808.41;;;7.20;93.20
9525;BME280;15940;48.734;9.112;2023-03-20T02:10:57;96816.22;;;7.18;92.65
9525;BME280;15940;48.734;9.112;2023-03-20T02:13:26;96818.16;;;7.17;93.08
9525;BME280;15940;48.734;9.112;2023-03-20T02:15:58;96820.28;;;7.13;92.83
9525;BME280;15940;48.734;9.112;2023-03-20T02:18:25;96817.31;;;7.11;91.74
9525;BME280;15940;48.734;9.112;2023-03-20T02:21:36;96815.66;;;7.13;92.53
9525;BME280;15940;48.734;9.112;2023-03-20T02:25:14;96817.41;;;7.16;92.15
9525;BME280;15940;48.734;9.112;2023-03-20T02:28:09;96819.81;;;7.14;92.38
9525;BME280;15940;48.734;9.112;2023-03-20T02:31:05;96821.78;;;7.14;91.84
9525;BME280;15940;48.734;9.112;2023-03-20T02:37:45;96816.53;;;7.10;91.69
9525;BME280;15940;48.734;9.112;2023-03-20T02:40:24;96830.59;;;7.14;91.76
9525;BME280;15940;48.734;9.112;2023-03-20T02:43:01;96818.34;;;7.13;91.46
9525;BME280;15940;48.734;9.112;2023-03-20T02:45:35;96824.00;;;7.15;92.17
9525;BME280;15940;48.734;9.112;2023-03-20T02:48:12;96828.09;;;7.11;91.12
9525;BME280;15940;48.734;9.112;2023-03-20T02:50:47;96822.97;;;7.13;91.50
9525;BME280;15940;48.734;9.112;2023-03-20T02:53:30;96816.94;;;7.18;91.60
9525;BME280;15940;48.734;9.112;2023-03-20T02:56:09;96816.66;;;7.16;91.39
9525;BME280;15940;48.734;9.112;2023-03-20T02:58:44;96816.22;;;7.18;91.41
9525;BME280;15940;48.734;9.112;2023-03-20T03:01:16;96814.72;;;7.16;91.52
9525;BME280;15940;48.734;9.112;2023-03-20T03:03:50;96824.00;;;7.15;91.64
9525;BME280;15940;48.734;9.112;2023-03-20T03:06:23;96823.72;;;7.13;91.67
9525;BME280;15940;48.734;9.112;2023-03-20T03:08:57;96832.09;;;7.15;92.29
9525;BME280;15940;48.734;9.112;2023-03-20T03:11:27;96835.06;;;7.18;91.94
9525;BME280;15940;48.734;9.112;2023-03-20T03:13:55;96830.75;;;7.20;92.12
9525;BME280;15940;48.734;9.112;2023-03-20T03:16:26;96825.16;;;7.24;91.46
9525;BME280;15940;48.734;9.112;2023-03-20T03:19:03;96823.09;;;7.19;91.37
9525;BME280;15940;48.734;9.112;2023-03-20T03:21:33;96824.13;;;7.21;91.75
9525;BME280;15940;48.734;9.112;2023-03-20T03:24:04;96831.47;;;7.21;91.26
9525;BME280;15940;48.734;9.112;2023-03-20T03:26:35;96830.28;;;7.22;91.39
9525;BME280;15940;48.734;9.112;2023-03-20T03:29:09;96837.91;;;7.23;91.76
9525;BME280;15940;48.734;9.112;2023-03-20T03:31:37;96838.34;;;7.22;91.36
9525;BME280;15940;48.734;9.112;2023-03-20T03:34:04;96840.59;;;7.23;91.84
9525;BME280;15940;48.734;9.112;2023-03-20T03:36:39;96834.00;;;7.24;91.44
9525;BME280;15940;48.734;9.112;2023-03-20T03:39:21;96834.00;;;7.24;91.47
9525;BME280;15940;48.734;9.112;2023-03-20T03:41:54;96839.38;;;7.24;91.65
9525;BME280;15940;48.734;9.112;2023-03-20T03:44:34;96845.53;;;7.25;91.87
9525;BME280;15940;48.734;9.112;2023-03-20T03:47:06;96841.91;;;7.28;91.66
9525;BME280;15940;48.734;9.112;2023-03-20T03:49:40;96842.81;;;7.25;91.00
9525;BME280;15940;48.734;9.112;2023-03-20T03:52:11;96844.78;;;7.24;91.36
9525;BME280;15940;48.734;9.112;2023-03-20T03:54:43;96853.88;;;7.27;91.62
9525;BME280;15940;48.734;9.112;2023-03-20T03:57:13;96845.97;;;7.23;91.29
9525;BME280;15940;48.734;9.112;2023-03-20T03:59:46;96848.50;;;7.27;90.49
9525;BME280;15940;48.734;9.112;2023-03-20T04:02:16;96856.00;;;7.23;91.13
9525;BME280;15940;48.734;9.112;2023-03-20T04:04:48;96851.81;;;7.22;90.64
9525;BME280;15940;48.734;9.112;2023-03-20T04:07:17;96852.72;;;7.19;90.90
9525;BME280;15940;48.734;9.112;2023-03-20T04:09:46;96851.88;;;7.12;89.40
9525;BME280;15940;48.734;9.112;2023-03-20T04:12:36;96861.91;;;7.12;90.38
9525;BME280;15940;48.734;9.112;2023-03-20T04:15:04;96859.50;;;7.14;89.67
9525;BME280;15940;48.734;9.112;2023-03-20T04:17:32;96858.28;;;7.15;90.86
9525;BME280;15940;48.734;9.112;2023-03-20T04:19:59;96862.75;;;7.18;90.82
9525;BME280;15940;48.734;9.112;2023-03-20T04:22:27;96860.97;;;7.15;89.94
9525;BME280;15940;48.734;9.112;2023-03-20T04:24:55;96846.75;;;7.14;90.30
9525;BME280;15940;48.734;9.112;2023-03-20T04:27:23;96856.03;;;7.13;90.22
9525;BME280;15940;48.734;9.112;2023-03-20T04:29:49;96846.75;;;7.14;90.26
9525;BME280;15940;48.734;9.112;2023-03-20T04:32:16;96848.56;;;7.08;90.27
9525;BME280;15940;48.734;9.112;2023-03-20T04:34:43;96841.00;;;6.98;89.42
9525;BME280;15940;48.734;9.112;2023-03-20T04:37:10;96832.81;;;6.92;89.85
9525;BME280;15940;48.734;9.112;2023-03-20T04:39:37;96832.94;;;6.88;89.65
9525;BME280;15940;48.734;9.112;2023-03-20T04:42:08;96833.56;;;6.83;89.65
9525;BME280;15940;48.734;9.112;2023-03-20T04:44:35;96829.53;;;6.79;89.79
9525;BME280;15940;48.734;9.112;2023-03-20T04:47:02;96832.22;;;6.79;89.83
9525;BME280;15940;48.734;9.112;2023-03-20T04:49:29;96844.38;;;6.74;90.17
9525;BME280;15940;48.734;9.112;2023-03-20T04:51:56;96841.38;;;6.72;89.75
9525;BME280;15940;48.734;9.112;2023-03-20T04:54:23;96836.63;;;6.67;90.06
9525;BME280;15940;48.734;9.112;2023-03-20T04:56:50;96849.16;;;6.70;90.29
9525;BME280;15940;48.734;9.112;2023-03-20T04:59:18;96849.16;;;6.70;90.98
9525;BME280;15940;48.734;9.112;2023-03-20T05:01:45;96849.63;;;6.69;90.64
9525;BME280;15940;48.734;9.112;2023-03-20T05:04:12;96854.25;;;6.68;90.88
9525;BME280;15940;48.734;9.112;2023-03-20T05:06:40;96856.19;;;6.68;90.70
9525;BME280;15940;48.734;9.112;2023-03-20T05:09:08;96860.84;;;6.67;90.74
9525;BME280;15940;48.734;9.112;2023-03-20T05:11:36;96865.47;;;6.67;91.07
9525;BME280;15940;48.734;9.112;2023-03-20T05:14:02;96871.16;;;6.69;91.07
9525;BME280;15940;48.734;9.112;2023-03-20T05:16:33;96873.09;;;6.68;90.98
9525;BME280;15940;48.734;9.112;2023-03-20T05:19:00;96880.41;;;6.77;91.75
9525;BME280;15940;48.734;9.112;2023-03-20T05:21:27;96878.75;;;6.79;91.46
9525;BME280;15940;48.734;9.112;2023-03-20T05:23:54;96892.94;;;6.89;91.64
9525;BME280;15940;48.734;9.112;2023-03-20T05:26:20;96887.69;;;6.95;92.03
9525;BME280;15940;48.734;9.112;2023-03-20T05:28:47;96882.31;;;6.95;92.03
9525;BME280;15940;48.734;9.112;2023-03-20T05:31:14;96887.06;;;7.00;91.65
9525;BME280;15940;48.734;9.112;2023-03-20T05:33:43;96878.22;;;6.99;91.65
9525;BME280;15940;48.734;9.112;2023-03-20T05:36:10;96875.69;;;7.05;91.71
9525;BME280;15940;48.734;9.112;2023-03-20T05:38:36;96871.06;;;6.96;91.03
9525;BME280;15940;48.734;9.112;2023-03-20T05:41:04;96870.63;;;6.98;91.57
9525;BME280;15940;48.734;9.112;2023-03-20T05:43:31;96871.69;;;6.91;90.42
9525;BME280;15940;48.734;9.112;2023-03-20T05:45:58;96875.25;;;6.97;91.54
9525;BME280;15940;48.734;9.112;2023-03-20T05:48:25;96884.38;;;7.00;91.15
9525;BME280;15940;48.734;9.112;2023-03-20T05:50:53;96887.94;;;7.06;91.26
9525;BME280;15940;48.734;9.112;2023-03-20T05:53:20;96886.47;;;7.05;90.89
9525;BME280;15940;48.734;9.112;2023-03-20T05:55:47;96888.53;;;7.10;91.25
9525;BME280;15940;48.734;9.112;2023-03-20T05:58:14;96893.47;;;7.11;90.87
9525;BME280;15940;48.734;9.112;2023-03-20T06:00:41;96895.44;;;7.11;90.66
9525;BME280;15940;48.734;9.112;2023-03-20T06:03:08;96904.06;;;7.15;90.38
9525;BME280;15940;48.734;9.112;2023-03-20T06:05:36;96905.00;;;7.12;90.58
9525;BME280;15940;48.734;9.112;2023-03-20T06:08:05;96908.09;;;7.20;90.68
9525;BME280;15940;48.734;9.112;2023-03-20T06:10:32;96901.34;;;7.24;90.49
9525;BME280;15940;48.734;9.112;2023-03-20T06:12:59;96902.22;;;7.30;90.51
9525;BME280;15940;48.734;9.112;2023-03-20T06:15:26;96906.81;;;7.39;90.75
9525;BME280;15940;48.734;9.112;2023-03-20T06:17:54;96899.59;;;7.45;89.99
9525;BME280;15940;48.734;9.112;2023-03-20T06:20:22;96904.66;;;7.52;89.85
9525;BME280;15940;48.734;9.112;2023-03-20T06:22:49;96912.72;;;7.61;89.70
9525;BME280;15940;48.734;9.112;2023-03-20T06:25:18;96914.78;;;7.66;89.62
9525;BME280;15940;48.734;9.112;2023-03-20T06:27:46;96904.03;;;7.57;87.64
9525;BME280;15940;48.734;9.112;2023-03-20T06:30:14;96908.63;;;7.66;88.12
9525;BME280;15940;48.734;9.112;2023-03-20T06:32:41;96903.09;;;7.69;87.83
9525;BME280;15940;48.734;9.112;2023-03-20T06:35:10;96897.09;;;7.65;87.34
9525;BME280;15940;48.734;9.112;2023-03-20T06:37:37;96904.56;;;7.70;87.21
9525;BME280;15940;48.734;9.112;2023-03-20T06:40:06;96900.50;;;7.75;87.21
9525;BME280;15940;48.734;9.112;2023-03-20T06:42:36;96895.97;;;7.81;87.45
9525;BME280;15940;48.734;9.112;2023-03-20T06:45:04;96901.50;;;7.87;86.93
9525;BME280;15940;48.734;9.112;2023-03-20T06:47:31;96890.06;;;7.92;86.28
9525;BME280;15940;48.734;9.112;2023-03-20T06:49:58;96904.00;;;7.90;86.02
9525;BME280;15940;48.734;9.112;2023-03-20T06:52:25;96908.19;;;7.91;85.75
9525;BME280;15940;48.734;9.112;2023-03-20T06:54:52;96906.38;;;8.12;85.23
9525;BME280;15940;48.734;9.112;2023-03-20T06:57:18;96898.91;;;8.31;84.19
9525;BME280;15940;48.734;9.112;2023-03-20T06:59:47;96906.50;;;8.42;83.25
9525;BME280;15940;48.734;9.112;2023-03-20T07:02:14;96909.22;;;8.56;82.86
9525;BME280;15940;48.734;9.112;2023-03-20T07:04:41;96906.59;;;8.62;81.79
9525;BME280;15940;48.734;9.112;2023-03-20T07:07:08;96912.84;;;8.68;81.15
9525;BME280;15940;48.734;9.112;2023-03-20T07:09:35;96913.13;;;9.00;81.57
9525;BME280;15940;48.734;9.112;2023-03-20T07:12:03;96921.25;;;9.14;80.47
9525;BME280;15940;48.734;9.112;2023-03-20T07:14:30;96920.84;;;9.36;80.23
9525;BME280;15940;48.734;9.112;2023-03-20T07:16:58;96920.84;;;9.36;79.62
9525;BME280;15940;48.734;9.112;2023-03-20T07:19:25;96931.00;;;9.41;79.62
9525;BME280;15940;48.734;9.112;2023-03-20T07:21:57;96922.09;;;9.56;80.17
9525;BME280;15940;48.734;9.112;2023-03-20T07:24:27;96929.75;;;9.57;77.96
9525;BME280;15940;48.734;9.112;2023-03-20T07:26:54;96939.53;;;9.55;79.11
9525;BME280;15940;48.734;9.112;2023-03-20T07:29:21;96939.66;;;9.45;78.37
9525;BME280;15940;48.734;9.112;2023-03-20T07:31:48;96948.06;;;9.33;79.37
9525;BME280;15940;48.734;9.112;2023-03-20T07:34:17;96939.31;;;9.23;80.83
9525;BME280;15940;48.734;9.112;2023-03-20T07:36:44;96935.22;;;9.13;79.63
9525;BME280;15940;48.734;9.112;2023-03-20T07:39:12;96936.06;;;9.19;80.44
9525;BME280;15940;48.734;9.112;2023-03-20T07:41:39;96934.44;;;9.27;80.36
9525;BME280;15940;48.734;9.112;2023-03-20T07:44:06;96932.09;;;9.50;79.89
9525;BME280;15940;48.734;9.112;2023-03-20T07:46:35;96928.94;;;9.51;78.72
9525;BME280;15940;48.734;9.112;2023-03-20T07:49:02;96930.94;;;9.71;78.14
9525;BME280;15940;48.734;9.112;2023-03-20T07:51:31;96926.28;;;9.92;78.80
9525;BME280;15940;48.734;9.112;2023-03-20T07:53:58;96930.78;;;10.15;78.63
9525;BME280;15940;48.734;9.112;2023-03-20T07:56:25;96930.16;;;10.46;77.29
9525;BME280;15940;48.734;9.112;2023-03-20T07:58:52;96934.06;;;10.66;74.92
9525;BME280;15940;48.734;9.112;2023-03-20T08:01:19;96939.00;;;10.93;73.22
9525;BME280;15940;48.734;9.112;2023-03-20T08:03:46;96928.97;;;10.99;73.04
9525;BME280;15940;48.734;9.112;2023-03-20T08:06:13;96932.88;;;10.98;72.14
9525;BME280;15940;48.734;9.112;2023-03-20T08:08:41;96929.88;;;10.91;71.85
9525;BME280;15940;48.734;9.112;2023-03-20T08:11:09;96926.78;;;10.77;73.61
9525;BME280;15940;48.734;9.112;2023-03-20T08:13:37;96931.34;;;10.92;72.98
9525;BME280;15940;48.734;9.112;2023-03-20T08:16:04;96937.53;;;10.92;73.30
9525;BME280;15940;48.734;9.112;2023-03-20T08:18:31;96938.31;;;10.72;72.63
9525;BME280;15940;48.734;9.112;2023-03-20T08:20:58;96927.16;;;10.65;74.30
9525;BME280;15940;48.734;9.112;2023-03-20T08:23:25;96933.13;;;10.48;73.80
9525;BME280;15940;48.734;9.112;2023-03-20T08:25:54;96947.38;;;10.43;74.78
9525;BME280;15940;48.734;9.112;2023-03-20T08:28:21;96940.81;;;10.29;74.12
9525;BME280;15940;48.734;9.112;2023-03-20T08:30:48;96948.03;;;10.38;74.66
9525;BME280;15940;48.734;9.112;2023-03-20T08:33:17;96947.41;;;10.49;74.69
9525;BME280;15940;48.734;9.112;2023-03-20T08:35:54;96941.50;;;10.71;75.05
9525;BME280;15940;48.734;9.112;2023-03-20T08:38:21;96946.13;;;10.91;73.37
9525;BME280;15940;48.734;9.112;2023-03-20T08:40:48;96935.41;;;11.07;72.57
9525;BME280;15940;48.734;9.112;2023-03-20T08:43:17;96941.72;;;11.25;72.38
9525;BME280;15940;48.734;9.112;2023-03-20T08:45:44;96940.22;;;11.18;71.66
9525;BME280;15940;48.734;9.112;2023-03-20T08:48:11;96929.88;;;11.22;70.58
9525;BME280;15940;48.734;9.112;2023-03-20T08:50:38;96933.28;;;11.17;71.15
9525;BME280;15940;48.734;9.112;2023-03-20T08:53:05;96937.50;;;11.18;70.54
9525;BME280;15940;48.734;9.112;2023-03-20T08:55:32;96931.88;;;11.27;69.78
9525;BME280;15940;48.734;9.112;2023-03-20T08:57:59;96940.50;;;11.26;68.02
9525;BME280;15940;48.734;9.112;2023-03-20T09:00:28;96938.16;;;11.39;68.48
9525;BME280;15940;48.734;9.112;2023-03-20T09:02:55;96932.88;;;11.61;68.52
9525;BME280;15940;48.734;9.112;2023-03-20T09:05:22;96937.75;;;11.89;68.06
9525;BME280;15940;48.734;9.112;2023-03-20T09:07:49;96938.25;;;11.56;67.69
9525;BME280;15940;48.734;9.112;2023-03-20T09:10:16;96941.34;;;11.37;68.12
9525;BME280;15940;48.734;9.112;2023-03-20T09:12:43;96945.06;;;11.40;67.56
9525;BME280;15940;48.734;9.112;2023-03-20T09:15:11;96946.22;;;11.65;66.53
9525;BME280;15940;48.734;9.112;2023-03-20T09:17:39;96951.78;;;11.50;66.68
9525;BME280;15940;48.734;9.112;2023-03-20T09:20:07;96952.72;;;11.41;67.10
9525;BME280;15940;48.734;9.112;2023-03-20T09:22:34;96964.88;;;11.52;67.89
9525;BME280;15940;48.734;9.112;2023-03-20T09:25:02;96951.44;;;11.68;66.02
9525;BME280;15940;48.734;9.112;2023-03-20T09:27:29;96956.13;;;11.73;67.57
9525;BME280;15940;48.734;9.112;2023-03-20T09:29:56;96954.78;;;11.89;66.37
9525;BME280;15940;48.734;9.112;2023-03-20T09:32:23;96956.28;;;11.90;65.45
9525;BME280;15940;48.734;9.112;2023-03-20T09:34:51;96949.91;;;11.99;67.04
9525;BME280;15940;48.734;9.112;2023-03-20T09:37:18;96947.03;;;12.19;65.88
9525;BME280;15940;48.734;9.112;2023-03-20T09:39:45;96948.38;;;12.46;65.43
9525;BME280;15940;48.734;9.112;2023-03-20T09:42:28;96953.44;;;12.98;63.99
9525;BME280;15940;48.734;9.112;2023-03-20T09:45:04;96950.50;;;13.24;63.13
9525;BME280;15940;48.734;9.112;2023-03-20T09:47:42;96963.88;;;13.33;63.25
9525;BME280;15940;48.734;9.112;2023-03-20T09:50:24;96961.63;;;13.09;61.25
9525;BME280;15940;48.734;9.112;2023-03-20T09:52:57;96955.16;;;12.84;63.41
9525;BME280;15940;48.734;9.112;2023-03-20T09:55:32;96948.19;;;12.67;62.51
9525;BME280;15940;48.734;9.112;2023-03-20T09:58:08;96951.88;;;12.52;63.88
9525;BME280;15940;48.734;9.112;2023-03-20T10:00:36;96953.34;;;12.53;63.26
9525;BME280;15940;48.734;9.112;2023-03-20T10:03:05;96952.34;;;12.56;64.80
9525;BME280;15940;48.734;9.112;2023-03-20T10:05:41;96961.06;;;12.88;64.11
9525;BME280;15940;48.734;9.112;2023-03-20T10:08:14;96950.72;;;12.93;61.72
9525;BME280;15940;48.734;9.112;2023-03-20T10:10:50;96956.59;;;12.74;61.74
9525;BME280;15940;48.734;9.112;2023-03-20T10:13:42;96945.50;;;12.72;63.17
9525;BME280;15940;48.734;9.112;2023-03-20T10:16:21;96953.19;;;13.13;62.47
9525;BME280;15940;48.734;9.112;2023-03-20T10:19:00;96956.19;;;13.71;61.06
9525;BME280;15940;48.734;9.112;2023-03-20T10:21:36;96956.94;;;13.66;60.98
9525;BME280;15940;48.734;9.112;2023-03-20T10:24:09;96952.00;;;13.42;59.63
9525;BME280;15940;48.734;9.112;2023-03-20T10:26:40;96961.63;;;13.09;60.07
9525;BME280;15940;48.734;9.112;2023-03-20T10:29:15;96962.34;;;12.99;61.56
9525;BME280;15940;48.734;9.112;2023-03-20T10:31:55;96955.53;;;12.49;62.87
9525;BME280;15940;48.734;9.112;2023-03-20T10:34:40;96965.88;;;12.40;63.61
9525;BME280;15940;48.734;9.112;2023-03-20T10:37:24;96955.56;;;11.95;64.69
9525;BME280;15940;48.734;9.112;2023-03-20T10:42:55;96967.25;;;11.38;65.11
9525;BME280;15940;48.734;9.112;2023-03-20T10:45:36;96962.78;;;11.35;66.53
9525;BME280;15940;48.734;9.112;2023-03-20T10:48:09;96961.09;;;11.43;65.63
9525;BME280;15940;48.734;9.112;2023-03-20T10:50:42;96956.06;;;11.62;67.10
9525;BME280;15940;48.734;9.112;2023-03-20T10:53:31;96954.53;;;11.87;65.84
9525;BME280;15940;48.734;9.112;2023-03-20T10:56:05;96946.94;;;12.02;63.56
9525;BME280;15940;48.734;9.112;2023-03-20T10:58:37;96942.53;;;12.11;62.85
9525;BME280;15940;48.734;9.112;2023-03-20T11:01:06;96942.06;;;12.12;65.00
9525;BME280;15940;48.734;9.112;2023-03-20T11:03:33;96946.13;;;12.34;63.05
9525;BME280;15940;48.734;9.112;2023-03-20T11:06:12;96946.94;;;12.68;63.89
9525;BME280;15940;48.734;9.112;2023-03-20T11:08:48;96946.72;;;12.77;62.40
9525;BME280;15940;48.734;9.112;2023-03-20T11:11:23;96946.00;;;12.82;63.09
9525;BME280;15940;48.734;9.112;2023-03-20T11:13:50;96943.25;;;12.76;62.61
9525;BME280;15940;48.734;9.112;2023-03-20T11:16:22;96942.28;;;12.74;64.42
9525;BME280;15940;48.734;9.112;2023-03-20T11:18:51;96936.53;;;12.49;64.10
9525;BME280;15940;48.734;9.112;2023-03-20T11:21:22;96941.44;;;12.34;63.14
9525;BME280;15940;48.734;9.112;2023-03-20T11:23:52;96946.28;;;12.19;64.04
9525;BME280;15940;48.734;9.112;2023-03-20T11:26:33;96941.84;;;12.16;63.66
9525;BME280;15940;48.734;9.112;2023-03-20T11:29:01;96957.59;;;12.06;66.11
9525;BME280;15940;48.734;9.112;2023-03-20T11:31:32;96947.72;;;12.09;66.36
9525;BME280;15940;48.734;9.112;2023-03-20T11:34:13;96947.59;;;12.35;66.32
9525;BME280;15940;48.734;9.112;2023-03-20T11:36:55;96949.19;;;12.75;64.64
9525;BME280;15940;48.734;9.112;2023-03-20T11:39:26;96945.81;;;13.25;61.82
9525;BME280;15940;48.734;9.112;2023-03-20T11:41:56;96944.34;;;13.35;63.37
9525;BME280;15940;48.734;9.112;2023-03-20T11:44:26;96945.06;;;13.35;63.09
9525;BME280;15940;48.734;9.112;2023-03-20T11:46:56;96950.28;;;13.33;63.87
9525;BME280;15940;48.734;9.112;2023-03-20T11:49:25;96948.06;;;13.21;64.48
9525;BME280;15940;48.734;9.112;2023-03-20T11:51:58;96948.25;;;13.11;64.82
9525;BME280;15940;48.734;9.112;2023-03-20T11:54:28;96942.06;;;13.00;63.69
9525;BME280;15940;48.734;9.112;2023-03-20T11:56:57;96939.34;;;13.05;64.54
9525;BME280;15940;48.734;9.112;2023-03-20T11:59:29;96942.81;;;12.95;65.14
9525;BME280;15940;48.734;9.112;2023-03-20T12:01:58;96936.63;;;12.94;64.55
9525;BME280;15940;48.734;9.112;2023-03-20T12:04:29;96942.59;;;13.09;64.85
9525;BME280;15940;48.734;9.112;2023-03-20T12:07:03;96938.91;;;13.24;64.92
9525;BME280;15940;48.734;9.112;2023-03-20T12:09:41;96938.88;;;13.52;63.94
9525;BME280;15940;48.734;9.112;2023-03-20T12:12:17;96933.69;;;13.54;63.08
9525;BME280;15940;48.734;9.112;2023-03-20T12:14:54;96931.13;;;14.00;63.29
9525;BME280;15940;48.734;9.112;2023-03-20T12:17:36;96929.00;;;14.35;62.73
9525;BME280;15940;48.734;9.112;2023-03-20T12:20:15;96926.25;;;14.51;59.36
9525;BME280;15940;48.734;9.112;2023-03-20T12:22:52;96924.59;;;14.26;61.45
9525;BME280;15940;48.734;9.112;2023-03-20T12:25:25;96916.19;;;14.18;58.94
9525;BME280;15940;48.734;9.112;2023-03-20T12:28:00;96918.97;;;14.07;61.61
9525;BME280;15940;48.734;9.112;2023-03-20T12:30:39;96928.66;;;14.03;59.96
9525;BME280;15940;48.734;9.112;2023-03-20T12:33:16;96917.81;;;13.86;60.88
9525;BME280;15940;48.734;9.112;2023-03-20T12:35:48;96909.13;;;13.82;59.17
9525;BME280;15940;48.734;9.112;2023-03-20T12:38:26;96909.13;;;13.82;61.12
9525;BME280;15940;48.734;9.112;2023-03-20T12:41:02;96906.16;;;13.80;60.67
9525;BME280;15940;48.734;9.112;2023-03-20T12:46:33;96906.97;;;13.52;61.57
9525;BME280;15940;48.734;9.112;2023-03-20T12:49:13;96903.75;;;13.14;61.23
9525;BME280;15940;48.734;9.112;2023-03-20T12:51:56;96902.00;;;12.95;61.31
9525;BME280;15940;48.734;9.112;2023-03-20T12:54:42;96901.75;;;12.76;62.53
9525;BME280;15940;48.734;9.112;2023-03-20T12:57:23;96897.53;;;12.52;62.36
9525;BME280;15940;48.734;9.112;2023-03-20T13:00:11;96893.25;;;12.23;63.57
9525;BME280;15940;48.734;9.112;2023-03-20T13:02:55;96893.47;;;12.14;64.33
9525;BME280;15940;48.734;9.112;2023-03-20T13:05:39;96887.50;;;12.10;64.88
9525;BME280;15940;48.734;9.112;2023-03-20T13:08:25;96898.88;;;12.20;66.59
9525;BME280;15940;48.734;9.112;2023-03-20T13:11:04;96894.94;;;12.21;65.28
9525;BME280;15940;48.734;9.112;2023-03-20T13:13:43;96887.28;;;12.19;65.14
9525;BME280;15940;48.734;9.112;2023-03-20T13:16:18;96886.25;;;12.11;65.75
9525;BME280;15940;48.734;9.112;2023-03-20T13:18:56;96884.00;;;11.98;64.82
9525;BME280;15940;48.734;9.112;2023-03-20T13:21:31;96882.50;;;11.92;66.20
9525;BME280;15940;48.734;9.112;2023-03-20T13:24:14;96886.44;;;11.91;66.79
9525;BME280;15940;48.734;9.112;2023-03-20T13:26:48;96875.22;;;11.72;65.39
9525;BME280;15940;48.734;9.112;2023-03-20T13:29:26;96879.16;;;11.71;66.37
9525;BME280;15940;48.734;9.112;2023-03-20T13:32:05;96875.22;;;11.72;67.12
9525;BME280;15940;48.734;9.112;2023-03-20T13:34:50;96876.78;;;11.84;67.09
9525;BME280;15940;48.734;9.112;2023-03-20T13:37:25;96863.97;;;11.90;67.02
9525;BME280;15940;48.734;9.112;2023-03-20T13:40:10;96862.56;;;12.06;66.88
9525;BME280;15940;48.734;9.112;2023-03-20T13:42:44;96869.78;;;12.26;65.12
9525;BME280;15940;48.734;9.112;2023-03-20T13:45:28;96861.00;;;12.70;67.10
9525;BME280;15940;48.734;9.112;2023-03-20T13:47:59;96858.25;;;13.04;64.06
9525;BME280;15940;48.734;9.112;2023-03-20T13:50:40;96857.06;;;13.27;63.21